Aérodrome :
LOGIN :

S'inscrire | Disclaimer

   EN    FR    IT 

 










Légende :    VFR   VFR Marginal   IFR   IFR Intensif   IFR Très Intensif
Visi : 
Plafond : 
>= 8 km
>= 3000ft
5 à 8 km
1000 à 3000 ft
1500m à 5 km
500 à 1000 ft
800 à 1500m
200 à 500 ft
< 800m
< 200 ft
Symboles :   Orages  Brouillard  Fortes neiges  Fortes précipitations  Vent > 20 kt
SIGMETs :   Divers  Orages  Givrage  Turbulence  Onde Orograph.  Cendres Volcan.







- Altitude de l'aérodrome : 499 ft
- Code IATA : TLS
- Voir les cartes d'approche


LFBO - Toulouse / Blagnac

DERNIER METAR :
  • 281200Z AUTO 29009KT 250V320 9999 FEW046/// BKN110/// ///TCU 25/11 Q1004 TEMPO 4000 SHRA BECMG SCT040 FEW060CB

METARs EXPIRÉS :
  • 281130Z AUTO 27006KT 220V320 9999 BKN040 BKN048 BKN068 24/13 Q1004 TEMPO 4000 SHRA BKN016 SCT025TCU
  • 281100Z AUTO 26006KT 220V310 9999 FEW033 SCT039 BKN110 24/13 Q1005 TEMPO 4000 SHRA BKN016 SCT025TCU
  • 281030Z AUTO 25008KT 220V290 9999 FEW027 SCT033 BKN046 23/13 Q1005 TEMPO 4000 SHRA BKN016 SCT025TCU
  • 281000Z AUTO 25005KT 190V280 9999 BKN025 BKN031 22/14 Q1005 TEMPO 4000 SHRA BKN016 SCT025TCU
  • 280930Z AUTO VRB05KT 9999 BKN018 BKN024 BKN100 20/15 Q1005 TEMPO 4000 SHRA BKN016 SCT025TCU

TAF TAF LFBO
Valide du 28 à 12h jusqu'au 29 à 18h UTC


281100Z 2812/2918 27005KT 9999 SCT030 BKN050
TEMPO 2812/2906 4000 SHRA BKN016 SCT025TCU
BECMG 2813/2815 SCT040 FEW060CB
PROB30
TEMPO 2815/2820 28020G35KT 2000 TSRA
BECMG 2821/2823 26016G26KT BKN012
TEMPO 2901/2906 26025G35KT 4000 SHRA BKN008 SCT030CB
BECMG 2908/2911 SCT030
ATIS : +33 5 62 74 66 36
Pas de NOTAMs connus pour ce terrain.
2 SIGMETs publiés pour la FIR Bordeaux (LFBB) :
 
Orages noyés dans la masse
LFBB SIGMET 4 VALID 281200/281600 LFPW
LFBB BORDEAUX FIR/UIR EMBD TS FCST S OF LINE N4245 E00230 - N4345 W00145 TOP FL310 STNR NC=
Orages noyés dans la masse
LFBB SIGMET 3 VALID 281200/281400 LFPW
LFBB BORDEAUX FIR/UIR EMBD TS OBS AT 1200Z WI N4345 W00145 - N4630 W00130 - N4630 W00015 - N4715 W00015 - N4645 E00115 - N4345 E00030 TOP FL310 MOV E 20KT NC=



MET'MAP, la Météo Aéronautique d'un coup d'oeil ! - Copyright ORBIFLY Décembre 2007 - Disclaimer

ORBIFLY MET'MAP TEAM :

Programmation & Développement : Alexandra Zaïnal
Conception & Développement : Baudouin d'Aumeries
Co-Programmation & Développement : Marc-Olivier Méhu
Soutien technique & logistique : Manuel Goepfert

Contact : metmap@orbifly.com




SOURCES & CREDITS :

   NOAA